createdAt,value
2019-05-20T00:01:10.444Z,99093.26
2019-05-20T00:03:41.295Z,99089.56
2019-05-20T00:06:12.219Z,99091.38
2019-05-20T00:08:42.893Z,99093.01
2019-05-20T00:11:13.576Z,99090.77
2019-05-20T00:13:44.350Z,99084.63
2019-05-20T00:16:15.364Z,99076.58
2019-05-20T00:18:46.414Z,99073.77
2019-05-20T00:21:18.184Z,99072.95
2019-05-20T00:23:48.849Z,99075.72
2019-05-20T00:26:19.837Z,99078.93
2019-05-20T00:28:50.514Z,99076.46
2019-05-20T00:31:21.271Z,99069.40
2019-05-20T00:33:52.345Z,99069.03
2019-05-20T00:36:23.147Z,99075.27
2019-05-20T00:39:11.750Z,99071.56
2019-05-20T00:41:43.169Z,99069.50
2019-05-20T00:44:13.872Z,99072.08
2019-05-20T00:46:45.598Z,99072.98
2019-05-20T00:49:16.577Z,99076.25
2019-05-20T00:51:47.326Z,99068.87
2019-05-20T00:54:18.514Z,99067.69
2019-05-20T00:56:53.128Z,99068.29
2019-05-20T00:59:23.828Z,99066.67
2019-05-20T01:01:55.780Z,99067.05
2019-05-20T01:04:26.844Z,99062.39
2019-05-20T01:06:57.851Z,99063.33
2019-05-20T01:09:28.918Z,99067.33
2019-05-20T01:11:59.652Z,99064.86
2019-05-20T01:14:30.367Z,99066.97
2019-05-20T01:17:01.069Z,99064.69
2019-05-20T01:19:32.162Z,99075.45
2019-05-20T01:22:02.817Z,99073.67
2019-05-20T01:24:33.502Z,99070.34
2019-05-20T01:27:05.156Z,99064.64
2019-05-20T01:29:36.306Z,99064.36
2019-05-20T01:32:07.266Z,99064.83
2019-05-20T01:34:38.379Z,99055.36
2019-05-20T01:37:09.456Z,99051.83
2019-05-20T01:39:40.211Z,99042.06
2019-05-20T01:42:11.208Z,99040.55
2019-05-20T01:44:42.261Z,99041.23
2019-05-20T01:47:13.566Z,99042.06
2019-05-20T01:49:45.671Z,99043.23
2019-05-20T01:52:16.423Z,99048.78
2019-05-20T01:54:47.424Z,99052.81
2019-05-20T01:57:18.105Z,99044.44
2019-05-20T01:59:49.091Z,99042.36
2019-05-20T02:02:19.784Z,99042.36
2019-05-20T02:04:50.806Z,99041.40
2019-05-20T02:07:21.539Z,99044.94
2019-05-20T02:09:52.476Z,99036.82
2019-05-20T02:12:23.228Z,99037.39
2019-05-20T02:15:04.558Z,99036.30
2019-05-20T02:17:35.603Z,99031.47
2019-05-20T02:20:09.835Z,99037.66
2019-05-20T02:22:40.533Z,99032.75
2019-05-20T02:25:12.614Z,99035.30
2019-05-20T02:27:43.265Z,99028.73
2019-05-20T02:30:14.586Z,99025.91
2019-05-20T02:32:45.268Z,99019.39
2019-05-20T02:35:15.932Z,99018.42
2019-05-20T02:37:46.607Z,99011.96
2019-05-20T02:40:17.686Z,99008.04
2019-05-20T02:42:48.401Z,99011.41
2019-05-20T02:45:20.004Z,99007.16
2019-05-20T02:47:50.711Z,99007.46
2019-05-20T02:50:21.461Z,99000.18
2019-05-20T02:52:52.154Z,99004.33
2019-05-20T02:55:22.823Z,99003.59
2019-05-20T02:57:53.870Z,99005.91
2019-05-20T03:00:24.559Z,98994.26
2019-05-20T03:02:55.415Z,98989.91
2019-05-20T03:05:26.492Z,98998.69
2019-05-20T03:07:57.521Z,98999.42
2019-05-20T03:10:28.178Z,98995.84
2019-05-20T03:12:59.211Z,99003.59
2019-05-20T03:15:30.351Z,99005.16
2019-05-20T03:18:01.126Z,99002.70
2019-05-20T03:20:33.231Z,98995.91
2019-05-20T03:23:04.269Z,98997.44
2019-05-20T03:25:36.028Z,99009.16
2019-05-20T03:28:06.730Z,99012.41
2019-05-20T03:30:37.826Z,99014.78
2019-05-20T03:33:08.950Z,99008.53
2019-05-20T03:35:39.630Z,99008.45
2019-05-20T03:38:10.410Z,99000.78
2019-05-20T03:40:41.076Z,99001.52
2019-05-20T03:43:11.768Z,99007.56
2019-05-20T03:45:43.158Z,99006.89
2019-05-20T03:48:14.206Z,99010.63
2019-05-20T03:50:44.967Z,99017.63
2019-05-20T03:53:15.644Z,99019.88
2019-05-20T03:55:46.683Z,99017.33
2019-05-20T03:58:17.377Z,99011.22
2019-05-20T04:00:49.391Z,99012.66
2019-05-20T04:03:20.049Z,99017.13
2019-05-20T04:05:51.022Z,99010.37
2019-05-20T04:08:21.698Z,99001.52
2019-05-20T04:10:52.416Z,99000.66
2019-05-20T04:13:23.410Z,98996.03
2019-05-20T04:15:54.090Z,98999.25
2019-05-20T04:18:24.830Z,98999.78
2019-05-20T04:20:55.868Z,99004.23
2019-05-20T04:23:27.040Z,99007.38
2019-05-20T04:25:58.028Z,99008.61
2019-05-20T04:28:29.127Z,99003.00
2019-05-20T04:31:00.218Z,99007.81
2019-05-20T04:33:30.920Z,99006.86
2019-05-20T04:36:01.586Z,99008.33
2019-05-20T04:38:32.302Z,98999.12
2019-05-20T04:41:02.951Z,98998.03
2019-05-20T04:43:33.993Z,98997.27
2019-05-20T04:46:04.923Z,99008.67
2019-05-20T04:48:35.623Z,99000.56
2019-05-20T04:51:06.694Z,98995.70
2019-05-20T04:53:37.381Z,98988.25
2019-05-20T04:56:08.351Z,98986.30
2019-05-20T04:58:39.031Z,98988.28
2019-05-20T05:01:09.728Z,98992.77
2019-05-20T05:03:41.109Z,98991.43
2019-05-20T05:06:11.879Z,98994.56
2019-05-20T05:08:42.841Z,98990.86
2019-05-20T05:11:13.623Z,98988.35
2019-05-20T05:13:44.613Z,98992.25
2019-05-20T05:16:15.415Z,98987.80
2019-05-20T05:18:46.494Z,98992.89
2019-05-20T05:21:17.422Z,98999.36
2019-05-20T05:23:58.729Z,98997.83
2019-05-20T05:26:20.938Z,98996.11
2019-05-20T05:28:51.784Z,99001.65
2019-05-20T05:31:22.600Z,99000.00
2019-05-20T05:33:54.442Z,98996.41
2019-05-20T05:36:25.349Z,98988.03
2019-05-20T05:38:56.361Z,98994.87
2019-05-20T05:41:27.127Z,98991.98
2019-05-20T05:43:58.115Z,98987.23
2019-05-20T05:46:30.068Z,98987.75
2019-05-20T05:49:01.719Z,98988.67
2019-05-20T05:51:32.413Z,98996.17
2019-05-20T05:54:03.405Z,98996.08
2019-05-20T05:56:34.376Z,98992.16
2019-05-20T05:59:05.320Z,98988.77
2019-05-20T06:01:36.000Z,98976.23
2019-05-20T06:04:06.977Z,98970.53
2019-05-20T06:06:37.718Z,98964.77
2019-05-20T06:09:09.046Z,98961.20
2019-05-20T06:11:39.731Z,98957.77
2019-05-20T06:14:10.429Z,98967.97
2019-05-20T06:16:41.108Z,98981.55
2019-05-20T06:19:11.803Z,98977.92
2019-05-20T06:21:43.924Z,98984.38
2019-05-20T06:24:15.115Z,98987.30
2019-05-20T06:26:46.102Z,98986.45
2019-05-20T06:29:17.774Z,98984.98
2019-05-20T06:31:48.813Z,98980.16
2019-05-20T06:34:19.710Z,98979.90
2019-05-20T06:36:52.554Z,98977.39
2019-05-20T06:39:23.609Z,98984.28
2019-05-20T06:41:54.893Z,98978.09
2019-05-20T06:44:25.958Z,98967.23
2019-05-20T06:46:56.983Z,98972.41
2019-05-20T06:49:28.033Z,98965.81
2019-05-20T06:51:58.725Z,98966.42
2019-05-20T06:54:29.425Z,98976.40
2019-05-20T06:57:00.216Z,98979.83
2019-05-20T06:59:30.878Z,98980.05
2019-05-20T07:02:01.624Z,98976.06
2019-05-20T07:04:32.716Z,98970.81
2019-05-20T07:07:12.439Z,98979.61
2019-05-20T07:09:35.781Z,98982.94
2019-05-20T07:12:06.612Z,98980.93
2019-05-20T07:14:37.319Z,98982.47
2019-05-20T07:17:08.002Z,98976.13
2019-05-20T07:19:38.700Z,98976.45
2019-05-20T07:22:09.378Z,98971.69
2019-05-20T07:24:40.102Z,98978.13
2019-05-20T07:27:10.886Z,98972.78
2019-05-20T07:29:41.910Z,98975.75
2019-05-20T07:32:12.952Z,98968.75
2019-05-20T07:34:43.987Z,98969.55
2019-05-20T07:37:15.042Z,98969.69
2019-05-20T07:39:46.075Z,98964.81
2019-05-20T07:42:16.746Z,98963.19
2019-05-20T07:44:47.753Z,98958.58
2019-05-20T07:47:18.501Z,98950.96
2019-05-20T07:49:51.089Z,98949.06
2019-05-20T07:52:24.377Z,98943.91
2019-05-20T07:54:58.083Z,98949.08
2019-05-20T07:57:33.365Z,98941.45
2019-05-20T08:00:06.005Z,98947.47
2019-05-20T08:02:37.253Z,98949.05
2019-05-20T08:05:10.050Z,98951.77
2019-05-20T08:07:51.806Z,98955.27
2019-05-20T08:10:13.948Z,98956.91
2019-05-20T08:12:44.782Z,98951.50
2019-05-20T08:15:17.437Z,98947.07
2019-05-20T08:17:48.480Z,98947.94
2019-05-20T08:20:20.663Z,98944.03
2019-05-20T08:22:51.374Z,98954.84
2019-05-20T08:25:22.531Z,98961.61
2019-05-20T08:27:53.276Z,98958.55
2019-05-20T08:30:37.109Z,98953.95
2019-05-20T08:33:08.273Z,98957.80
2019-05-20T08:35:39.131Z,98963.58
2019-05-20T08:38:09.956Z,98968.72
2019-05-20T08:40:42.404Z,98965.76
2019-05-20T08:43:14.438Z,98965.43
2019-05-20T08:45:45.185Z,98966.61
2019-05-20T08:48:16.219Z,98968.11
2019-05-20T08:50:47.307Z,98974.88
2019-05-20T08:53:18.130Z,98976.41
2019-05-20T08:55:48.913Z,98979.59
2019-05-20T08:58:19.658Z,98973.12
2019-05-20T09:00:50.748Z,98978.64
2019-05-20T09:03:21.608Z,98973.24
2019-05-20T09:05:52.554Z,98972.11
2019-05-20T09:08:23.389Z,98964.72
2019-05-20T09:10:54.059Z,98971.88
2019-05-20T09:13:24.768Z,98972.75
2019-05-20T09:15:56.406Z,98964.68
2019-05-20T09:18:27.184Z,98969.03
2019-05-20T09:20:58.176Z,98969.46
2019-05-20T09:23:28.987Z,98970.53
2019-05-20T09:26:00.295Z,98971.02
2019-05-20T09:28:31.422Z,98961.30
2019-05-20T09:31:02.715Z,98949.15
2019-05-20T09:33:35.246Z,98952.03
2019-05-20T09:36:06.447Z,98954.03
2019-05-20T09:38:37.281Z,98954.37
2019-05-20T09:41:08.476Z,98947.84
2019-05-20T09:43:39.262Z,98948.87
2019-05-20T09:46:10.340Z,98949.18
2019-05-20T09:48:41.070Z,98946.74
2019-05-20T09:51:11.796Z,98956.70
2019-05-20T09:53:42.603Z,98959.94
2019-05-20T09:56:13.347Z,98952.09
2019-05-20T09:58:44.137Z,98953.64
2019-05-20T10:01:15.932Z,98959.06
2019-05-20T10:03:47.337Z,98951.25
2019-05-20T10:06:18.390Z,98942.35
2019-05-20T10:08:49.077Z,98936.06
2019-05-20T10:11:19.829Z,98941.80
2019-05-20T10:13:50.957Z,98947.49
2019-05-20T10:16:21.866Z,98944.75
2019-05-20T10:18:55.281Z,98947.72
2019-05-20T10:21:24.981Z,98947.05
2019-05-20T10:23:55.785Z,98947.87
2019-05-20T10:26:26.465Z,98945.98
2019-05-20T10:28:57.271Z,98942.98
2019-05-20T10:31:27.982Z,98935.78
2019-05-20T10:33:58.633Z,98933.89
2019-05-20T10:36:29.693Z,98932.16
2019-05-20T10:39:01.438Z,98929.24
2019-05-20T10:41:34.118Z,98932.48
2019-05-20T10:44:05.079Z,98932.20
2019-05-20T10:46:36.193Z,98930.23
2019-05-20T10:49:07.291Z,98933.47
2019-05-20T10:51:38.317Z,98932.39
2019-05-20T10:54:09.061Z,98931.53
2019-05-20T10:56:39.787Z,98940.19
2019-05-20T10:59:12.142Z,98941.47
2019-05-20T11:01:42.861Z,98950.84
2019-05-20T11:04:13.896Z,98942.41
2019-05-20T11:06:44.708Z,98952.71
2019-05-20T11:09:15.387Z,98954.02
2019-05-20T11:11:46.546Z,98955.66
2019-05-20T11:14:17.217Z,98956.08
2019-05-20T11:16:47.928Z,98964.37
2019-05-20T11:19:18.951Z,98971.05
2019-05-20T11:21:49.992Z,98971.75
2019-05-20T11:24:21.008Z,98989.73
2019-05-20T11:26:51.987Z,98992.51
2019-05-20T11:29:23.108Z,98992.88
2019-05-20T11:31:54.751Z,98987.74
2019-05-20T11:34:25.914Z,98977.73
2019-05-20T11:36:56.871Z,98967.50
2019-05-20T11:39:33.133Z,98969.64
2019-05-20T11:41:59.949Z,98972.19
2019-05-20T11:44:31.085Z,98970.91
2019-05-20T11:47:01.785Z,98971.73
2019-05-20T11:49:33.105Z,98984.86
2019-05-20T11:52:04.261Z,98979.84
2019-05-20T11:54:35.158Z,98980.24
2019-05-20T11:57:06.185Z,98972.17
2019-05-20T11:59:37.210Z,98973.67
2019-05-20T12:02:08.013Z,98963.11
2019-05-20T12:04:39.161Z,98964.30
2019-05-20T12:07:10.977Z,98962.17
2019-05-20T12:09:49.799Z,98964.91
2019-05-20T12:12:14.182Z,98965.41
2019-05-20T12:14:44.977Z,98965.06
2019-05-20T12:17:16.038Z,98962.56
2019-05-20T12:19:46.742Z,98955.67
2019-05-20T12:22:17.565Z,98965.05
2019-05-20T12:24:48.257Z,98963.03
2019-05-20T12:27:18.927Z,98966.10
2019-05-20T12:29:49.659Z,98969.87
2019-05-20T12:32:20.340Z,98960.71
2019-05-20T12:34:51.381Z,98950.23
2019-05-20T12:37:22.056Z,98955.36
2019-05-20T12:40:06.417Z,98954.77
2019-05-20T12:42:25.159Z,98950.48
2019-05-20T12:44:55.882Z,98950.32
2019-05-20T12:47:27.037Z,98947.47
2019-05-20T12:49:57.745Z,98942.05
2019-05-20T12:52:28.442Z,98937.03
2019-05-20T12:55:08.027Z,98933.96
2019-05-20T12:57:31.988Z,98929.97
2019-05-20T13:00:02.801Z,98919.70
2019-05-20T13:02:34.973Z,98919.83
2019-05-20T13:05:08.145Z,98917.23
2019-05-20T13:07:39.035Z,98921.94
2019-05-20T13:10:28.209Z,98916.05
2019-05-20T13:12:44.255Z,98911.25
2019-05-20T13:15:17.113Z,98906.67
2019-05-20T13:17:47.868Z,98910.23
2019-05-20T13:20:19.112Z,98909.84
2019-05-20T13:22:50.029Z,98905.29
2019-05-20T13:25:20.898Z,98906.30
2019-05-20T13:27:51.612Z,98901.38
2019-05-20T13:30:24.128Z,98906.63
2019-05-20T13:32:54.855Z,98898.13
2019-05-20T13:35:26.002Z,98896.16
2019-05-20T13:37:57.157Z,98893.28
2019-05-20T13:40:45.080Z,98890.16
2019-05-20T13:43:00.329Z,98886.88
2019-05-20T13:45:31.499Z,98887.67
2019-05-20T13:48:02.192Z,98891.01
2019-05-20T13:50:33.510Z,98888.56
2019-05-20T13:53:04.256Z,98883.82
2019-05-20T13:55:35.341Z,98884.73
2019-05-20T13:58:06.101Z,98888.92
2019-05-20T14:00:37.110Z,98884.98
2019-05-20T14:03:07.858Z,98889.70
2019-05-20T14:05:38.950Z,98901.44
2019-05-20T14:08:09.785Z,98924.16
2019-05-20T14:10:40.611Z,98934.79
2019-05-20T14:13:11.973Z,98929.34
2019-05-20T14:15:43.232Z,98933.26
2019-05-20T14:18:14.390Z,98931.50
2019-05-20T14:20:45.093Z,98932.05
2019-05-20T14:23:16.243Z,98927.04
2019-05-20T14:25:47.435Z,98933.10
2019-05-20T14:28:18.123Z,98949.56
2019-05-20T14:30:49.237Z,98947.02
2019-05-20T14:33:20.268Z,98948.96
2019-05-20T14:35:50.951Z,98950.52
2019-05-20T14:38:21.995Z,98958.27
2019-05-20T14:40:52.854Z,98962.70
2019-05-20T14:43:23.590Z,98971.27
2019-05-20T14:45:54.314Z,98966.11
2019-05-20T14:48:25.054Z,98955.46
2019-05-20T14:50:55.726Z,98950.92
2019-05-20T14:53:26.533Z,98944.73
2019-05-20T14:55:57.240Z,98943.19
2019-05-20T14:58:27.900Z,98938.95
2019-05-20T15:00:58.622Z,98938.91
2019-05-20T15:03:29.356Z,98949.86
2019-05-20T15:06:00.412Z,98949.63
2019-05-20T15:08:34.322Z,98948.28
2019-05-20T15:11:03.842Z,98945.31
2019-05-20T15:13:35.128Z,98950.53
2019-05-20T15:16:06.220Z,98951.95
2019-05-20T15:18:37.249Z,98943.02
2019-05-20T15:21:08.398Z,98943.22
2019-05-20T15:23:39.539Z,98944.63
2019-05-20T15:26:10.589Z,98938.02
2019-05-20T15:28:41.251Z,98934.06
2019-05-20T15:31:12.243Z,98937.42
2019-05-20T15:33:42.974Z,98940.78
2019-05-20T15:36:14.071Z,98937.06
2019-05-20T15:38:44.845Z,98944.57
2019-05-20T15:41:15.544Z,98947.86
2019-05-20T15:43:46.282Z,98942.71
2019-05-20T15:46:16.955Z,98938.47
2019-05-20T15:48:47.653Z,98938.33
2019-05-20T15:51:18.618Z,98938.14
2019-05-20T15:53:50.720Z,98934.60
2019-05-20T15:56:21.774Z,98931.34
2019-05-20T15:58:53.697Z,98927.37
2019-05-20T16:01:24.664Z,98924.53
2019-05-20T16:03:55.344Z,98930.92
2019-05-20T16:06:26.409Z,98942.48
2019-05-20T16:08:57.558Z,98942.30
2019-05-20T16:11:28.435Z,98950.72
2019-05-20T16:13:59.630Z,98957.60
2019-05-20T16:16:30.334Z,98955.48
2019-05-20T16:19:00.987Z,98949.93
2019-05-20T16:21:32.030Z,98954.09
2019-05-20T16:24:02.768Z,98952.59
2019-05-20T16:26:34.659Z,98954.20
2019-05-20T16:29:05.612Z,98947.56
2019-05-20T16:31:36.502Z,98940.26
2019-05-20T16:34:07.568Z,98940.56
2019-05-20T16:36:38.515Z,98935.13
2019-05-20T16:39:09.278Z,98930.31
2019-05-20T16:41:40.253Z,98933.12
2019-05-20T16:44:11.399Z,98933.94
2019-05-20T16:46:42.436Z,98940.05
2019-05-20T16:49:13.824Z,98946.55
2019-05-20T16:51:44.835Z,98948.99
2019-05-20T16:54:15.880Z,98946.66
2019-05-20T16:56:46.554Z,98945.78
2019-05-20T16:59:17.617Z,98935.30
2019-05-20T17:01:48.549Z,98936.23
2019-05-20T17:04:19.702Z,98935.70
2019-05-20T17:06:50.752Z,98942.95
2019-05-20T17:09:22.041Z,98935.95
2019-05-20T17:11:52.803Z,98932.27
2019-05-20T17:14:23.474Z,98930.33
2019-05-20T17:16:54.247Z,98932.14
2019-05-20T17:19:25.229Z,98935.19
2019-05-20T17:21:55.946Z,98932.20
2019-05-20T17:24:26.708Z,98936.83
2019-05-20T17:26:57.410Z,98929.86
2019-05-20T17:29:28.551Z,98929.64
2019-05-20T17:32:00.640Z,98934.14
2019-05-20T17:34:32.701Z,98936.75
2019-05-20T17:37:03.639Z,98932.02
2019-05-20T17:39:34.368Z,98922.97
2019-05-20T17:42:05.752Z,98923.39
2019-05-20T17:44:38.044Z,98932.84
2019-05-20T17:47:08.974Z,98930.54
2019-05-20T17:49:39.736Z,98930.36
2019-05-20T17:52:10.503Z,98932.05
2019-05-20T17:54:44.023Z,98930.30
2019-05-20T17:57:14.844Z,98934.94
2019-05-20T17:59:45.879Z,98923.27
2019-05-20T18:02:17.232Z,98927.01
2019-05-20T18:04:48.270Z,98916.66
2019-05-20T18:07:19.294Z,98921.05
2019-05-20T18:09:52.287Z,98924.41
2019-05-20T18:12:24.340Z,98922.07
2019-05-20T18:14:56.987Z,98915.05
2019-05-20T18:17:27.658Z,98916.82
2019-05-20T18:19:58.725Z,98909.33
2019-05-20T18:22:29.540Z,98910.45
2019-05-20T18:25:00.472Z,98910.25
2019-05-20T18:27:31.737Z,98908.70
2019-05-20T18:30:03.720Z,98912.34
2019-05-20T18:32:34.710Z,98912.63
2019-05-20T18:35:07.554Z,98916.83
2019-05-20T18:37:38.635Z,98917.81
2019-05-20T18:40:14.400Z,98921.27
2019-05-20T18:42:43.773Z,98919.47
2019-05-20T18:45:15.626Z,98911.44
2019-05-20T18:47:46.602Z,98914.09
2019-05-20T18:50:17.791Z,98906.35
2019-05-20T18:52:48.965Z,98905.23
2019-05-20T18:55:20.024Z,98905.91
2019-05-20T18:57:51.629Z,98914.12
2019-05-20T19:00:24.445Z,98920.72
2019-05-20T19:02:55.402Z,98927.89
2019-05-20T19:05:26.334Z,98926.97
2019-05-20T19:07:57.474Z,98935.61
2019-05-20T19:10:29.463Z,98936.59
2019-05-20T19:13:00.680Z,98951.86
2019-05-20T19:15:31.712Z,98951.44
2019-05-20T19:18:03.711Z,98953.14
2019-05-20T19:20:34.457Z,98951.67
2019-05-20T19:23:05.166Z,98951.58
2019-05-20T19:25:38.057Z,98953.74
2019-05-20T19:28:09.087Z,98949.80
2019-05-20T19:30:39.905Z,98958.30
2019-05-20T19:33:10.932Z,98959.11
2019-05-20T19:35:42.069Z,98970.25
2019-05-20T19:38:13.245Z,98972.19
2019-05-20T19:40:45.615Z,98985.22
2019-05-20T19:43:16.373Z,98984.02
2019-05-20T19:45:47.476Z,98977.45
2019-05-20T19:48:18.162Z,98972.02
2019-05-20T19:50:49.238Z,98973.71
2019-05-20T19:53:20.412Z,98981.99
2019-05-20T19:55:51.422Z,98975.80
2019-05-20T19:58:22.166Z,98971.61
2019-05-20T20:00:56.565Z,98967.80
2019-05-20T20:03:25.640Z,98972.06
2019-05-20T20:05:56.629Z,98967.90
2019-05-20T20:08:27.377Z,98972.06
2019-05-20T20:10:58.423Z,98970.10
2019-05-20T20:13:29.442Z,98964.67
2019-05-20T20:16:00.138Z,98962.51
2019-05-20T20:18:31.217Z,98956.39
2019-05-20T20:21:02.009Z,98954.53
2019-05-20T20:23:33.018Z,98959.30
2019-05-20T20:26:03.753Z,98949.61
2019-05-20T20:28:34.934Z,98955.81
2019-05-20T20:31:05.827Z,98951.80
2019-05-20T20:33:36.722Z,98956.59
2019-05-20T20:36:08.600Z,98946.84
2019-05-20T20:38:39.751Z,98946.12
2019-05-20T20:41:10.787Z,98944.08
2019-05-20T20:43:42.192Z,98938.62
2019-05-20T20:46:14.036Z,98944.47
2019-05-20T20:48:44.898Z,98941.02
2019-05-20T20:53:43.114Z,98940.22
2019-05-20T20:56:24.634Z,98939.06
2019-05-20T20:58:46.411Z,98940.32
2019-05-20T21:01:17.659Z,98934.06
2019-05-20T21:03:48.732Z,98929.61
2019-05-20T21:06:19.886Z,98932.18
2019-05-20T21:08:50.719Z,98938.20
2019-05-20T21:11:22.139Z,98939.88
2019-05-20T21:13:53.229Z,98953.77
2019-05-20T21:16:24.095Z,98954.39
2019-05-20T21:18:54.890Z,98953.07
2019-05-20T21:21:25.901Z,98953.19
2019-05-20T21:23:56.611Z,98946.61
2019-05-20T21:26:28.405Z,98944.73
2019-05-20T21:28:59.198Z,98949.09
2019-05-20T21:31:31.444Z,98957.25
2019-05-20T21:34:02.523Z,98957.45
2019-05-20T21:36:46.540Z,98933.88
2019-05-20T21:39:07.470Z,98960.67
2019-05-20T21:41:38.663Z,98968.19
2019-05-20T21:44:09.464Z,98961.93
2019-05-20T21:46:40.627Z,98960.40
2019-05-20T21:49:12.323Z,98971.84
2019-05-20T21:51:43.078Z,98964.22
2019-05-20T21:54:14.140Z,98970.31
2019-05-20T21:56:44.896Z,98966.92
2019-05-20T21:59:15.691Z,98961.89
2019-05-20T22:01:46.703Z,98961.06
2019-05-20T22:04:17.784Z,98972.19
2019-05-20T22:06:48.473Z,98978.77
2019-05-20T22:09:19.170Z,98984.45
2019-05-20T22:11:49.945Z,98982.38
2019-05-20T22:14:20.902Z,98985.79
2019-05-20T22:16:51.637Z,98989.80
2019-05-20T22:19:22.832Z,98990.62
2019-05-20T22:21:57.964Z,98988.47
2019-05-20T22:24:29.028Z,98990.31
2019-05-20T22:27:00.107Z,98994.17
2019-05-20T22:29:30.822Z,98993.27
2019-05-20T22:32:01.840Z,98999.44
2019-05-20T22:34:32.894Z,99002.31
2019-05-20T22:37:04.001Z,98987.60
2019-05-20T22:39:35.027Z,98991.61
2019-05-20T22:42:05.976Z,98989.59
2019-05-20T22:44:37.052Z,98992.89
2019-05-20T22:47:07.775Z,98989.90
2019-05-20T22:49:38.864Z,98984.64
2019-05-20T22:52:09.855Z,98985.30
2019-05-20T22:54:40.937Z,98986.91
2019-05-20T22:57:13.112Z,98991.44
2019-05-20T22:59:44.120Z,98992.79
2019-05-20T23:02:15.163Z,98997.63
2019-05-20T23:04:46.233Z,98991.75
2019-05-20T23:07:17.136Z,98987.11
2019-05-20T23:09:48.264Z,98986.09
2019-05-20T23:12:19.340Z,98989.05
2019-05-20T23:14:50.036Z,98981.57
2019-05-20T23:17:21.040Z,98984.33
2019-05-20T23:19:51.785Z,98983.19
2019-05-20T23:22:22.770Z,98976.51
2019-05-20T23:24:53.518Z,98972.30
2019-05-20T23:27:24.521Z,98976.71
2019-05-20T23:29:55.211Z,98977.64
2019-05-20T23:32:25.879Z,98973.75
2019-05-20T23:34:56.843Z,98972.52
2019-05-20T23:37:28.275Z,98971.50
2019-05-20T23:39:59.017Z,98975.79
2019-05-20T23:42:30.088Z,98975.09
2019-05-20T23:45:01.122Z,98978.18
2019-05-20T23:47:31.906Z,98970.70
2019-05-20T23:50:02.670Z,98970.17
2019-05-20T23:52:33.413Z,98971.83
2019-05-20T23:55:05.833Z,98974.92
2019-05-20T23:57:36.574Z,98975.84
